createdAt,value
2023-04-06T00:00:14.261Z,3.80
2023-04-06T00:02:41.406Z,3.80
2023-04-06T00:05:08.777Z,3.80
2023-04-06T00:07:36.014Z,3.80
2023-04-06T00:10:04.298Z,3.70
2023-04-06T00:12:31.358Z,3.70
2023-04-06T00:14:59.447Z,3.70
2023-04-06T00:17:26.482Z,3.60
2023-04-06T00:19:53.701Z,3.60
2023-04-06T00:22:20.746Z,3.60
2023-04-06T00:24:47.779Z,3.60
2023-04-06T00:27:14.800Z,3.50
2023-04-06T00:29:41.902Z,3.50
2023-04-06T00:32:09.287Z,3.50
2023-04-06T00:34:36.294Z,3.50
2023-04-06T00:37:03.431Z,3.50
2023-04-06T00:39:30.544Z,3.50
2023-04-06T00:41:58.239Z,3.50
2023-04-06T00:44:25.912Z,3.40
2023-04-06T00:46:52.877Z,3.40
2023-04-06T00:49:20.063Z,3.30
2023-04-06T00:51:47.143Z,3.30
2023-04-06T00:54:15.703Z,3.30
2023-04-06T00:56:44.355Z,3.30
2023-04-06T00:59:12.822Z,3.30
2023-04-06T01:01:41.043Z,3.30
2023-04-06T01:04:26.192Z,3.30
2023-04-06T01:06:54.454Z,3.20
2023-04-06T01:09:30.787Z,3.20
2023-04-06T01:12:00.288Z,3.20
2023-04-06T01:14:31.666Z,3.20
2023-04-06T01:17:01.752Z,3.20
2023-04-06T01:19:32.215Z,3.10
2023-04-06T01:21:59.975Z,3.10
2023-04-06T01:24:34.247Z,3.10
2023-04-06T01:27:02.221Z,3.10
2023-04-06T01:29:38.173Z,3.10
2023-04-06T01:32:09.325Z,3.10
2023-04-06T01:34:48.426Z,3.00
2023-04-06T01:37:15.701Z,3.00
2023-04-06T01:39:43.932Z,3.00
2023-04-06T01:42:14.837Z,3.00
2023-04-06T01:44:41.939Z,3.00
2023-04-06T01:47:13.873Z,3.00
2023-04-06T01:49:41.082Z,2.90
2023-04-06T01:52:09.204Z,2.90
2023-04-06T01:54:38.916Z,2.90
2023-04-06T01:57:17.936Z,2.90
2023-04-06T01:59:49.750Z,2.90
2023-04-06T02:02:25.579Z,2.90
2023-04-06T02:05:01.984Z,2.80
2023-04-06T02:07:29.820Z,2.90
2023-04-06T02:09:57.895Z,2.80
2023-04-06T02:12:33.936Z,2.80
2023-04-06T02:15:01.595Z,2.80
2023-04-06T02:17:28.792Z,2.80
2023-04-06T02:19:55.940Z,2.80
2023-04-06T02:22:22.991Z,2.80
2023-04-06T02:24:52.354Z,2.80
2023-04-06T02:27:19.634Z,2.80
2023-04-06T02:29:50.052Z,2.80
2023-04-06T02:32:21.053Z,2.80
2023-04-06T02:34:49.103Z,2.80
2023-04-06T02:37:18.684Z,2.80
2023-04-06T02:39:46.261Z,2.70
2023-04-06T02:42:13.480Z,2.70
2023-04-06T02:44:40.914Z,2.80
2023-04-06T02:47:09.610Z,2.80
2023-04-06T02:49:38.705Z,2.80
2023-04-06T02:52:05.777Z,2.80
2023-04-06T02:54:35.813Z,2.80
2023-04-06T02:57:04.174Z,2.80
2023-04-06T02:59:38.206Z,2.80
2023-04-06T03:02:14.325Z,2.80
2023-04-06T03:04:42.073Z,2.80
2023-04-06T03:07:18.447Z,2.90
2023-04-06T03:09:46.401Z,2.90
2023-04-06T03:12:13.479Z,2.90
2023-04-06T03:14:58.992Z,2.90
2023-04-06T03:17:27.153Z,3.00
2023-04-06T03:20:02.021Z,3.00
2023-04-06T03:22:31.426Z,3.00
2023-04-06T03:24:58.611Z,3.00
2023-04-06T03:27:26.435Z,3.10
2023-04-06T03:29:54.089Z,3.10
2023-04-06T03:32:27.357Z,3.10
2023-04-06T03:34:54.459Z,3.10
2023-04-06T03:37:21.661Z,3.20
2023-04-06T03:39:53.660Z,3.20
2023-04-06T03:42:24.023Z,3.20
2023-04-06T03:44:59.879Z,3.20
2023-04-06T03:47:27.821Z,3.20
2023-04-06T03:49:59.363Z,3.20
2023-04-06T03:52:27.269Z,3.20
2023-04-06T03:54:54.675Z,3.20
2023-04-06T03:57:21.704Z,3.30
2023-04-06T03:59:48.799Z,3.30
2023-04-06T04:02:15.874Z,3.30
2023-04-06T04:04:42.975Z,3.30
2023-04-06T04:07:10.204Z,3.40
2023-04-06T04:09:38.477Z,3.40
2023-04-06T04:12:05.720Z,3.40
2023-04-06T04:14:32.882Z,3.40
2023-04-06T04:16:59.841Z,3.50
2023-04-06T04:19:27.187Z,3.50
2023-04-06T04:21:57.912Z,3.50
2023-04-06T04:24:32.630Z,3.60
2023-04-06T04:27:02.015Z,3.60
2023-04-06T04:29:32.054Z,3.60
2023-04-06T04:32:04.081Z,3.60
2023-04-06T04:34:35.149Z,3.60
2023-04-06T04:37:04.002Z,3.60
2023-04-06T04:39:44.342Z,3.70
2023-04-06T04:42:12.178Z,3.70
2023-04-06T04:44:45.525Z,3.70
2023-04-06T04:47:13.188Z,3.70
2023-04-06T04:49:44.921Z,3.70
2023-04-06T04:52:17.755Z,3.70
2023-04-06T04:55:00.466Z,3.70
2023-04-06T04:57:29.561Z,3.70
2023-04-06T04:59:58.020Z,3.80
2023-04-06T05:02:25.536Z,3.80
2023-04-06T05:05:11.232Z,3.80
2023-04-06T05:07:40.117Z,3.70
2023-04-06T05:10:12.604Z,3.80
2023-04-06T05:12:49.950Z,3.80
2023-04-06T05:15:20.688Z,3.80
2023-04-06T05:17:50.428Z,3.80
2023-04-06T05:20:22.268Z,3.80
2023-04-06T05:22:51.631Z,3.80
2023-04-06T05:25:18.869Z,3.80
2023-04-06T05:27:49.131Z,3.80
2023-04-06T05:30:27.641Z,3.80
2023-04-06T05:32:55.334Z,3.90
2023-04-06T05:35:24.774Z,3.90
2023-04-06T05:37:56.352Z,4.00
2023-04-06T05:40:26.363Z,4.00
2023-04-06T05:42:53.782Z,4.00
2023-04-06T05:45:22.325Z,4.00
2023-04-06T05:47:58.843Z,4.10
2023-04-06T05:50:29.858Z,4.10
2023-04-06T05:52:58.109Z,4.20
2023-04-06T05:55:30.561Z,4.30
2023-04-06T05:58:10.970Z,4.40
2023-04-06T06:00:38.125Z,4.40
2023-04-06T06:03:09.637Z,4.50
2023-04-06T06:05:37.684Z,4.60
2023-04-06T06:08:41.713Z,4.60
2023-04-06T06:11:13.892Z,4.70
2023-04-06T06:13:40.930Z,4.80
2023-04-06T06:16:09.066Z,4.80
2023-04-06T06:18:42.112Z,4.90
2023-04-06T06:21:09.423Z,5.00
2023-04-06T06:23:36.475Z,5.20
2023-04-06T06:26:04.349Z,5.30
2023-04-06T06:28:32.268Z,5.40
2023-04-06T06:31:00.176Z,5.50
2023-04-06T06:33:28.505Z,5.50
2023-04-06T06:35:57.209Z,5.60
2023-04-06T06:38:24.422Z,5.70
2023-04-06T06:40:52.216Z,5.80
2023-04-06T06:43:20.637Z,5.90
2023-04-06T06:46:00.337Z,6.00
2023-04-06T06:48:29.288Z,6.20
2023-04-06T06:50:56.484Z,6.30
2023-04-06T06:53:24.662Z,6.40
2023-04-06T06:55:51.835Z,6.60
2023-04-06T06:58:22.011Z,6.80
2023-04-06T07:00:49.657Z,6.90
2023-04-06T07:03:17.269Z,7.00
2023-04-06T07:05:54.449Z,7.20
2023-04-06T07:08:24.119Z,7.30
2023-04-06T07:10:59.325Z,7.30
2023-04-06T07:13:28.315Z,7.40
2023-04-06T07:15:58.009Z,7.40
2023-04-06T07:18:25.084Z,7.40
2023-04-06T07:20:52.426Z,7.50
2023-04-06T07:23:19.974Z,7.50
2023-04-06T07:25:47.276Z,7.60
2023-04-06T07:28:14.325Z,7.70
2023-04-06T07:30:42.399Z,7.70
2023-04-06T07:33:11.279Z,7.80
2023-04-06T07:35:38.877Z,7.90
2023-04-06T07:38:07.227Z,8.00
2023-04-06T07:40:35.812Z,8.10
2023-04-06T07:43:03.837Z,8.10
2023-04-06T07:45:32.434Z,8.20
2023-04-06T07:48:01.025Z,8.30
2023-04-06T07:50:29.073Z,8.40
2023-04-06T07:52:57.266Z,8.50
2023-04-06T07:55:24.563Z,8.60
2023-04-06T07:57:51.920Z,8.60
2023-04-06T08:00:19.190Z,8.60
2023-04-06T08:02:46.377Z,8.70
2023-04-06T08:05:14.635Z,8.60
2023-04-06T08:07:42.695Z,8.60
2023-04-06T08:10:10.518Z,8.60
2023-04-06T08:12:37.512Z,8.60
2023-04-06T08:15:05.007Z,8.70
2023-04-06T08:17:35.003Z,8.60
2023-04-06T08:20:04.486Z,8.60
2023-04-06T08:22:31.610Z,8.60
2023-04-06T08:24:58.733Z,8.60
2023-04-06T08:27:25.983Z,8.70
2023-04-06T08:29:53.192Z,8.70
2023-04-06T08:32:20.538Z,8.80
2023-04-06T08:34:47.982Z,8.80
2023-04-06T08:37:15.455Z,8.90
2023-04-06T08:39:42.606Z,9.00
2023-04-06T08:42:17.584Z,9.00
2023-04-06T08:44:48.350Z,9.10
2023-04-06T08:47:15.562Z,9.20
2023-04-06T08:49:45.119Z,9.30
2023-04-06T08:52:12.541Z,9.30
2023-04-06T08:54:40.352Z,9.50
2023-04-06T08:57:08.456Z,9.50
2023-04-06T08:59:36.408Z,9.60
2023-04-06T09:02:06.537Z,9.70
2023-04-06T09:04:35.941Z,9.80
2023-04-06T09:07:03.124Z,9.80
2023-04-06T09:09:30.401Z,9.90
2023-04-06T09:12:03.118Z,10.00
2023-04-06T09:14:38.545Z,10.00
2023-04-06T09:17:06.571Z,10.10
2023-04-06T09:19:33.798Z,10.30
2023-04-06T09:22:08.694Z,10.40
2023-04-06T09:24:50.637Z,10.50
2023-04-06T09:27:18.415Z,10.60
2023-04-06T09:29:45.999Z,10.70
2023-04-06T09:32:17.508Z,10.80
2023-04-06T09:34:44.594Z,10.80
2023-04-06T09:37:18.945Z,10.90
2023-04-06T09:39:47.034Z,11.00
2023-04-06T09:42:26.594Z,11.10
2023-04-06T09:44:53.761Z,11.10
2023-04-06T09:47:21.692Z,11.20
2023-04-06T09:49:54.759Z,11.20
2023-04-06T09:52:24.223Z,11.30
2023-04-06T09:54:52.116Z,11.40
2023-04-06T09:57:49.775Z,11.50
2023-04-06T10:00:21.780Z,11.60
2023-04-06T10:02:56.373Z,11.70
2023-04-06T10:05:41.592Z,11.90
2023-04-06T10:08:11.147Z,12.00
2023-04-06T10:10:38.967Z,12.10
2023-04-06T10:13:06.521Z,12.00
2023-04-06T10:15:34.502Z,12.00
2023-04-06T10:18:03.148Z,12.00
2023-04-06T10:20:55.446Z,12.10
2023-04-06T10:23:37.268Z,12.10
2023-04-06T10:26:04.793Z,12.10
2023-04-06T10:28:34.367Z,12.00
2023-04-06T10:31:03.468Z,12.00
2023-04-06T10:33:30.658Z,12.00
2023-04-06T10:35:57.752Z,11.90
2023-04-06T10:38:41.359Z,11.90
2023-04-06T10:41:11.565Z,11.90
2023-04-06T10:43:40.756Z,11.80
2023-04-06T10:46:09.359Z,11.80
2023-04-06T10:48:43.490Z,11.80
2023-04-06T10:51:15.611Z,11.80
2023-04-06T10:53:47.773Z,11.80
2023-04-06T10:56:16.718Z,11.80
2023-04-06T10:58:52.738Z,11.80
2023-04-06T11:01:22.336Z,11.90
2023-04-06T11:03:51.296Z,12.00
2023-04-06T11:06:26.442Z,12.30
2023-04-06T11:08:54.389Z,12.40
2023-04-06T11:11:23.752Z,12.40
2023-04-06T11:13:55.187Z,12.40
2023-04-06T11:16:30.810Z,12.40
2023-04-06T11:18:59.316Z,12.40
2023-04-06T11:21:44.659Z,12.30
2023-04-06T11:24:13.943Z,12.40
2023-04-06T11:26:56.696Z,12.40
2023-04-06T11:29:32.549Z,12.50
2023-04-06T11:32:01.049Z,12.60
2023-04-06T11:34:31.320Z,12.60
2023-04-06T11:37:03.634Z,12.60
2023-04-06T11:39:30.691Z,12.60
2023-04-06T11:42:04.049Z,12.50
2023-04-06T11:44:41.209Z,12.50
2023-04-06T11:47:10.447Z,12.50
2023-04-06T11:49:48.668Z,12.50
2023-04-06T11:52:24.936Z,12.50
2023-04-06T11:54:53.822Z,12.30
2023-04-06T11:57:24.089Z,12.10
2023-04-06T11:59:51.098Z,12.00
2023-04-06T12:02:19.041Z,11.70
2023-04-06T12:04:46.897Z,11.60
2023-04-06T12:07:14.064Z,11.40
2023-04-06T12:09:41.192Z,11.30
2023-04-06T12:12:08.258Z,11.20
2023-04-06T12:14:35.426Z,11.00
2023-04-06T12:17:02.820Z,10.90
2023-04-06T12:19:31.067Z,10.70
2023-04-06T12:21:59.107Z,10.60
2023-04-06T12:24:26.346Z,10.60
2023-04-06T12:27:02.671Z,10.40
2023-04-06T12:29:33.895Z,10.30
2023-04-06T12:32:02.542Z,10.10
2023-04-06T12:34:29.808Z,10.00
2023-04-06T12:36:58.579Z,9.90
2023-04-06T12:39:26.514Z,9.90
2023-04-06T12:41:54.123Z,9.80
2023-04-06T12:44:21.328Z,9.70
2023-04-06T12:46:48.562Z,9.70
2023-04-06T12:49:17.889Z,9.70
2023-04-06T12:51:45.130Z,9.70
2023-04-06T12:54:13.124Z,9.70
2023-04-06T12:56:40.605Z,9.60
2023-04-06T12:59:12.384Z,9.60
2023-04-06T13:01:39.741Z,9.60
2023-04-06T13:04:06.868Z,9.50
2023-04-06T13:06:34.230Z,9.50
2023-04-06T13:09:01.229Z,9.50
2023-04-06T13:11:28.926Z,9.40
2023-04-06T13:13:56.414Z,9.30
2023-04-06T13:16:23.510Z,9.30
2023-04-06T13:18:51.285Z,9.30
2023-04-06T13:21:18.587Z,9.40
2023-04-06T13:23:45.774Z,9.40
2023-04-06T13:26:14.613Z,9.30
2023-04-06T13:28:42.247Z,9.30
2023-04-06T13:31:10.812Z,9.30
2023-04-06T13:33:38.356Z,9.20
2023-04-06T13:36:07.163Z,9.20
2023-04-06T13:38:34.833Z,9.10
2023-04-06T13:41:01.969Z,9.10
2023-04-06T13:43:31.555Z,9.10
2023-04-06T13:46:01.821Z,9.00
2023-04-06T13:48:29.014Z,9.00
2023-04-06T13:50:56.268Z,9.00
2023-04-06T13:53:23.400Z,9.00
2023-04-06T13:55:55.545Z,9.00
2023-04-06T13:58:33.476Z,9.00
2023-04-06T14:01:08.950Z,9.00
2023-04-06T14:03:36.798Z,9.00
2023-04-06T14:08:44.758Z,9.00
2023-04-06T14:11:18.041Z,9.00
2023-04-06T14:13:45.378Z,9.00
2023-04-06T14:16:12.624Z,9.00
2023-04-06T14:18:39.850Z,9.00
2023-04-06T14:21:08.182Z,9.10
2023-04-06T14:23:38.965Z,9.10
2023-04-06T14:26:13.181Z,9.10
2023-04-06T14:28:41.010Z,9.10
2023-04-06T14:31:14.373Z,9.10
2023-04-06T14:33:42.638Z,9.10
2023-04-06T14:36:10.714Z,9.10
2023-04-06T14:38:38.582Z,9.10
2023-04-06T14:41:05.887Z,9.10
2023-04-06T14:43:35.462Z,9.10
2023-04-06T14:46:03.682Z,9.00
2023-04-06T14:48:31.496Z,9.10
2023-04-06T14:50:59.189Z,9.00
2023-04-06T14:53:29.349Z,9.00
2023-04-06T14:55:57.642Z,9.00
2023-04-06T14:58:26.466Z,9.00
2023-04-06T15:01:01.119Z,9.00
2023-04-06T15:03:29.411Z,9.00
2023-04-06T15:06:00.242Z,9.00
2023-04-06T15:08:28.732Z,8.90
2023-04-06T15:11:00.392Z,8.90
2023-04-06T15:13:30.606Z,8.90
2023-04-06T15:15:59.198Z,8.80
2023-04-06T15:18:27.728Z,8.80
2023-04-06T15:20:55.850Z,8.80
2023-04-06T15:23:23.065Z,8.80
2023-04-06T15:25:50.768Z,8.80
2023-04-06T15:28:18.123Z,8.70
2023-04-06T15:30:45.535Z,8.70
2023-04-06T15:33:17.038Z,8.70
2023-04-06T15:35:47.637Z,8.70
2023-04-06T15:38:17.014Z,8.70
2023-04-06T15:40:46.256Z,8.70
2023-04-06T15:43:14.419Z,8.60
2023-04-06T15:45:41.882Z,8.70
2023-04-06T15:48:13.806Z,8.60
2023-04-06T15:50:43.292Z,8.60
2023-04-06T15:53:10.392Z,8.60
2023-04-06T15:55:42.129Z,8.60
2023-04-06T15:58:22.749Z,8.60
2023-04-06T16:00:50.770Z,8.60
2023-04-06T16:03:19.259Z,8.60
2023-04-06T16:08:21.184Z,8.60
2023-04-06T16:10:49.748Z,8.50
2023-04-06T16:13:21.568Z,8.50
2023-04-06T16:15:52.210Z,8.50
2023-04-06T16:18:19.990Z,8.50
2023-04-06T16:20:47.301Z,8.50
2023-04-06T16:23:14.546Z,8.50
2023-04-06T16:34:02.870Z,8.50
2023-04-06T16:37:24.452Z,8.40
2023-04-06T16:40:10.767Z,8.40
2023-04-06T16:42:38.275Z,8.30
2023-04-06T16:45:06.128Z,8.30
2023-04-06T16:47:33.506Z,8.30
2023-04-06T16:50:05.967Z,8.30
2023-04-06T16:52:37.341Z,8.30
2023-04-06T16:55:04.644Z,8.40
2023-04-06T16:57:31.662Z,8.40
2023-04-06T16:59:58.989Z,8.40
2023-04-06T17:02:26.570Z,8.40
2023-04-06T17:04:53.872Z,8.40
2023-04-06T17:07:25.842Z,8.40
2023-04-06T17:09:52.933Z,8.50
2023-04-06T17:15:35.465Z,8.50
2023-04-06T17:18:40.265Z,8.50
2023-04-06T17:24:02.493Z,8.50
2023-04-06T17:26:29.595Z,8.50
2023-04-06T17:28:56.889Z,8.50
2023-04-06T17:31:24.104Z,8.50
2023-04-06T17:33:51.431Z,8.40
2023-04-06T17:36:20.685Z,8.40
2023-04-06T17:38:49.010Z,8.40
2023-04-06T17:41:22.748Z,8.40
2023-04-06T17:43:51.313Z,8.50
2023-04-06T17:46:21.913Z,8.50
2023-04-06T17:48:53.616Z,8.40
2023-04-06T17:55:28.613Z,8.40
2023-04-06T17:58:10.897Z,8.40
2023-04-06T18:00:56.129Z,8.40
2023-04-06T18:03:46.347Z,8.40
2023-04-06T18:06:17.129Z,8.30
2023-04-06T18:10:08.796Z,8.30
2023-04-06T18:12:36.431Z,8.30
2023-04-06T18:15:04.096Z,8.30
2023-04-06T18:17:38.563Z,8.30
2023-04-06T18:24:23.143Z,8.30
2023-04-06T18:27:18.868Z,8.30
2023-04-06T18:29:53.497Z,8.30
2023-04-06T18:32:21.101Z,8.30
2023-04-06T18:34:48.523Z,8.30
2023-04-06T18:37:41.161Z,8.30
2023-04-06T18:43:19.498Z,8.30
2023-04-06T18:46:02.860Z,8.30
2023-04-06T18:49:21.737Z,8.30
2023-04-06T18:53:02.827Z,8.30
2023-04-06T18:59:50.599Z,8.20
2023-04-06T19:03:31.616Z,8.30
2023-04-06T19:15:18.316Z,8.30
2023-04-06T19:22:38.177Z,8.30
2023-04-06T19:33:55.626Z,8.30
2023-04-06T19:37:06.916Z,8.30
2023-04-06T19:39:41.557Z,8.30
2023-04-06T19:47:07.328Z,8.30
2023-04-06T19:49:54.387Z,8.30
2023-04-06T19:52:40.084Z,8.30
2023-04-06T20:00:20.718Z,8.40
2023-04-06T20:02:48.022Z,8.40
2023-04-06T20:05:18.213Z,8.40
2023-04-06T20:17:13.281Z,8.40
2023-04-06T20:23:16.932Z,8.40
2023-04-06T20:27:04.738Z,8.40
2023-04-06T20:30:06.036Z,8.50
2023-04-06T20:32:45.858Z,8.50
2023-04-06T20:35:13.182Z,8.50
2023-04-06T20:37:40.158Z,8.50
2023-04-06T20:40:12.275Z,8.50
2023-04-06T20:42:42.957Z,8.50
2023-04-06T20:45:48.476Z,8.50
2023-04-06T20:49:04.461Z,8.50
2023-04-06T20:53:24.412Z,8.50
2023-04-06T20:55:52.910Z,8.50
2023-04-06T21:01:55.150Z,8.60
2023-04-06T21:04:40.925Z,8.60
2023-04-06T21:07:15.870Z,8.50
2023-04-06T21:09:56.957Z,8.60
2023-04-06T21:12:29.202Z,8.60
2023-04-06T21:14:56.681Z,8.60
2023-04-06T21:17:30.508Z,8.60
2023-04-06T21:20:06.974Z,8.60
2023-04-06T21:22:34.324Z,8.60
2023-04-06T21:25:04.437Z,8.70
2023-04-06T21:27:34.251Z,8.70
2023-04-06T21:30:01.682Z,8.60
2023-04-06T21:32:29.228Z,8.70
2023-04-06T21:34:59.335Z,8.70
2023-04-06T21:37:29.654Z,8.70
2023-04-06T21:39:57.686Z,8.70
2023-04-06T21:42:25.397Z,8.70
2023-04-06T21:44:52.580Z,8.70
2023-04-06T21:47:19.698Z,8.70
2023-04-06T21:54:01.058Z,8.80
2023-04-06T22:01:11.809Z,8.70
2023-04-06T22:22:10.381Z,8.70
2023-04-06T22:24:53.210Z,8.70
2023-04-06T22:27:49.589Z,8.80
